sensor_id;sensor_type;location;lat;lon;timestamp;pressure;altitude;pressure_sealevel;temperature;humidity
17936;BME280;9093;52.062;4.508;2023-04-08T19:14:49;102956.09;;;10.73;66.50
17936;BME280;9093;52.062;4.508;2023-04-08T19:17:29;102947.09;;;10.77;67.04
17936;BME280;9093;52.062;4.508;2023-04-08T19:20:10;102957.59;;;10.86;67.36
17936;BME280;9093;52.062;4.508;2023-04-08T19:22:50;102958.28;;;10.96;67.39
17936;BME280;9093;52.062;4.508;2023-04-08T19:25:31;102950.97;;;11.04;67.00
17936;BME280;9093;52.062;4.508;2023-04-08T19:28:11;102961.38;;;11.16;67.25
17936;BME280;9093;52.062;4.508;2023-04-08T19:30:53;102960.31;;;11.25;67.03
17936;BME280;9093;52.062;4.508;2023-04-08T19:33:33;102965.53;;;11.31;67.02
17936;BME280;9093;52.062;4.508;2023-04-08T19:36:14;102969.91;;;11.34;66.75
17936;BME280;9093;52.062;4.508;2023-04-08T19:38:54;102963.59;;;11.36;66.44
17936;BME280;9093;52.062;4.508;2023-04-08T19:41:34;102964.53;;;11.34;66.47
17936;BME280;9093;52.062;4.508;2023-04-08T19:44:15;102960.06;;;11.36;66.74
17936;BME280;9093;52.062;4.508;2023-04-08T19:46:55;102960.97;;;11.35;66.51
17936;BME280;9093;52.062;4.508;2023-04-08T19:49:36;102967.19;;;11.35;66.39
17936;BME280;9093;52.062;4.508;2023-04-08T19:52:17;102960.97;;;11.35;66.41
17936;BME280;9093;52.062;4.508;2023-04-08T19:54:59;102969.91;;;11.34;66.57
17936;BME280;9093;52.062;4.508;2023-04-08T19:57:39;102969.91;;;11.34;66.34
17936;BME280;9093;52.062;4.508;2023-04-08T20:00:20;102965.56;;;11.28;66.61
17936;BME280;9093;52.062;4.508;2023-04-08T20:03:01;102971.81;;;11.28;66.45
17936;BME280;9093;52.062;4.508;2023-04-08T20:05:41;102966.50;;;11.25;66.38
17936;BME280;9093;52.062;4.508;2023-04-08T20:08:22;102964.78;;;11.24;66.33
17936;BME280;9093;52.062;4.508;2023-04-08T20:11:02;102964.84;;;11.21;66.41
17936;BME280;9093;52.062;4.508;2023-04-08T20:13:42;102970.19;;;11.21;66.15
17936;BME280;9093;52.062;4.508;2023-04-08T20:16:23;102973.84;;;11.17;66.39
17936;BME280;9093;52.062;4.508;2023-04-08T20:19:03;102971.19;;;11.16;66.67
17936;BME280;9093;52.062;4.508;2023-04-08T20:21:43;102973.09;;;11.12;66.63
17936;BME280;9093;52.062;4.508;2023-04-08T20:24:24;102974.00;;;11.11;66.46
17936;BME280;9093;52.062;4.508;2023-04-08T20:27:04;102975.81;;;11.09;66.48
17936;BME280;9093;52.062;4.508;2023-04-08T20:29:44;102974.94;;;11.07;66.33
17936;BME280;9093;52.062;4.508;2023-04-08T20:32:25;102969.72;;;11.03;66.54
17936;BME280;9093;52.062;4.508;2023-04-08T20:35:07;102978.63;;;11.03;66.81
17936;BME280;9093;52.062;4.508;2023-04-08T20:37:47;102976.00;;;11.00;66.55
17936;BME280;9093;52.062;4.508;2023-04-08T20:40:27;102971.59;;;10.99;66.56
17936;BME280;9093;52.062;4.508;2023-04-08T20:43:08;102976.97;;;10.96;66.81
17936;BME280;9093;52.062;4.508;2023-04-08T20:45:48;102962.72;;;10.96;66.72
17936;BME280;9093;52.062;4.508;2023-04-08T20:48:28;102974.38;;;10.93;66.65
17936;BME280;9093;52.062;4.508;2023-04-08T20:51:08;102974.44;;;10.90;66.89
17936;BME280;9093;52.062;4.508;2023-04-08T20:53:49;102963.88;;;10.84;67.08
17936;BME280;9093;52.062;4.508;2023-04-08T20:56:29;102976.34;;;10.85;66.81
17936;BME280;9093;52.062;4.508;2023-04-08T20:59:10;102971.00;;;10.85;66.91
17936;BME280;9093;52.062;4.508;2023-04-08T21:01:51;102971.00;;;10.85;66.82
17936;BME280;9093;52.062;4.508;2023-04-08T21:04:32;102971.97;;;10.81;66.96
17936;BME280;9093;52.062;4.508;2023-04-08T21:07:13;102969.31;;;10.81;66.94
17936;BME280;9093;52.062;4.508;2023-04-08T21:09:53;102967.59;;;10.77;67.18
17936;BME280;9093;52.062;4.508;2023-04-08T21:12:33;102967.63;;;10.75;67.15
17936;BME280;9093;52.062;4.508;2023-04-08T21:15:14;102971.16;;;10.76;67.34
17936;BME280;9093;52.062;4.508;2023-04-08T21:17:54;102972.94;;;10.77;67.03
17936;BME280;9093;52.062;4.508;2023-04-08T21:20:34;102964.16;;;10.72;67.07
17936;BME280;9093;52.062;4.508;2023-04-08T21:23:15;102965.06;;;10.71;67.40
17936;BME280;9093;52.062;4.508;2023-04-08T21:25:55;102966.84;;;10.70;67.42
17936;BME280;9093;52.062;4.508;2023-04-08T21:28:35;102967.81;;;10.68;67.33
17936;BME280;9093;52.062;4.508;2023-04-08T21:31:16;102966.91;;;10.67;67.38
17936;BME280;9093;52.062;4.508;2023-04-08T21:33:56;102969.59;;;10.67;67.39
17936;BME280;9093;52.062;4.508;2023-04-08T21:36:37;102966.06;;;10.65;67.59
17936;BME280;9093;52.062;4.508;2023-04-08T21:39:17;102960.75;;;10.64;67.66
17936;BME280;9093;52.062;4.508;2023-04-08T21:41:57;102961.69;;;10.61;67.59
17936;BME280;9093;52.062;4.508;2023-04-08T21:44:37;102958.28;;;10.55;67.82
17936;BME280;9093;52.062;4.508;2023-04-08T21:47:18;102961.84;;;10.54;67.68
17936;BME280;9093;52.062;4.508;2023-04-08T21:49:58;102960.09;;;10.51;67.80
17936;BME280;9093;52.062;4.508;2023-04-08T21:52:38;102956.59;;;10.49;67.90
17936;BME280;9093;52.062;4.508;2023-04-08T21:55:19;102956.63;;;10.47;68.01
17936;BME280;9093;52.062;4.508;2023-04-08T21:57:59;102959.31;;;10.47;68.02
17936;BME280;9093;52.062;4.508;2023-04-08T22:00:39;102959.31;;;10.47;68.17
17936;BME280;9093;52.062;4.508;2023-04-08T22:03:20;102968.22;;;10.46;68.30
17936;BME280;9093;52.062;4.508;2023-04-08T22:06:00;102959.34;;;10.44;67.93
17936;BME280;9093;52.062;4.508;2023-04-08T22:08:41;102962.00;;;10.44;68.13
17936;BME280;9093;52.062;4.508;2023-04-08T22:11:21;102965.66;;;10.42;68.14
17936;BME280;9093;52.062;4.508;2023-04-08T22:14:01;102963.91;;;10.39;68.26
17936;BME280;9093;52.062;4.508;2023-04-08T22:16:42;102968.38;;;10.37;68.27
17936;BME280;9093;52.062;4.508;2023-04-08T22:19:22;102963.13;;;10.34;68.22
17936;BME280;9093;52.062;4.508;2023-04-08T22:22:03;102961.44;;;10.30;68.42
17936;BME280;9093;52.062;4.508;2023-04-08T22:24:43;102973.03;;;10.28;68.53
17936;BME280;9093;52.062;4.508;2023-04-08T22:27:23;102973.06;;;10.26;68.62
17936;BME280;9093;52.062;4.508;2023-04-08T22:30:05;102966.91;;;10.23;68.72
17936;BME280;9093;52.062;4.508;2023-04-08T22:32:45;102967.78;;;10.23;68.68
17936;BME280;9093;52.062;4.508;2023-04-08T22:35:25;102967.81;;;10.22;68.63
17936;BME280;9093;52.062;4.508;2023-04-08T22:38:06;102961.63;;;10.18;68.91
17936;BME280;9093;52.062;4.508;2023-04-08T22:40:46;102966.97;;;10.18;68.86
17936;BME280;9093;52.062;4.508;2023-04-08T22:43:26;102967.00;;;10.15;68.76
17936;BME280;9093;52.062;4.508;2023-04-08T22:46:07;102957.22;;;10.16;68.97
17936;BME280;9093;52.062;4.508;2023-04-08T22:48:47;102970.56;;;10.14;69.04
17936;BME280;9093;52.062;4.508;2023-04-08T22:51:28;102962.63;;;10.11;69.21
17936;BME280;9093;52.062;4.508;2023-04-08T22:54:08;102972.38;;;10.12;69.11
17936;BME280;9093;52.062;4.508;2023-04-08T22:56:48;102964.44;;;10.11;69.02
17936;BME280;9093;52.062;4.508;2023-04-08T22:59:29;102967.13;;;10.09;68.96
17936;BME280;9093;52.062;4.508;2023-04-08T23:02:09;102970.75;;;10.05;69.29
17936;BME280;9093;52.062;4.508;2023-04-08T23:04:53;102960.13;;;10.02;69.34
17936;BME280;9093;52.062;4.508;2023-04-08T23:07:34;102961.94;;;10.00;69.10
17936;BME280;9093;52.062;4.508;2023-04-08T23:10:15;102954.84;;;9.99;69.43
17936;BME280;9093;52.062;4.508;2023-04-08T23:12:55;102948.69;;;9.95;69.15
17936;BME280;9093;52.062;4.508;2023-04-08T23:15:35;102955.78;;;9.95;69.53
17936;BME280;9093;52.062;4.508;2023-04-08T23:18:15;102945.19;;;9.92;69.21
17936;BME280;9093;52.062;4.508;2023-04-08T23:20:56;102941.59;;;9.93;69.60
17936;BME280;9093;52.062;4.508;2023-04-08T23:23:37;102942.53;;;9.90;69.55
17936;BME280;9093;52.062;4.508;2023-04-08T23:26:17;102941.66;;;9.90;69.55
17936;BME280;9093;52.062;4.508;2023-04-08T23:28:58;102941.69;;;9.88;69.67
17936;BME280;9093;52.062;4.508;2023-04-08T23:31:38;102934.56;;;9.87;69.55
17936;BME280;9093;52.062;4.508;2023-04-08T23:34:19;102937.28;;;9.86;69.61
17936;BME280;9093;52.062;4.508;2023-04-08T23:36:59;102934.66;;;9.83;69.80
17936;BME280;9093;52.062;4.508;2023-04-08T23:39:39;102932.91;;;9.82;69.80
17936;BME280;9093;52.062;4.508;2023-04-08T23:42:20;102933.81;;;9.81;69.83
17936;BME280;9093;52.062;4.508;2023-04-08T23:45:06;102930.22;;;9.83;70.00
17936;BME280;9093;52.062;4.508;2023-04-08T23:47:47;102923.09;;;9.84;69.87
17936;BME280;9093;52.062;4.508;2023-04-08T23:50:27;102923.09;;;9.84;69.85
17936;BME280;9093;52.062;4.508;2023-04-08T23:53:07;102917.75;;;9.84;70.10
17936;BME280;9093;52.062;4.508;2023-04-08T23:55:47;102927.53;;;9.83;69.97
17936;BME280;9093;52.062;4.508;2023-04-08T23:58:28;102922.19;;;9.85;70.17
